sensor_id;sensor_type;location;lat;lon;timestamp;P1;durP1;ratioP1;P2;durP2;ratioP2
1831;SDS011;1680;48.106;11.708;2022-12-10T00:00:34;26.00;;;19.92;;
1831;SDS011;1680;48.106;11.708;2022-12-10T00:03:02;25.15;;;18.23;;
1831;SDS011;1680;48.106;11.708;2022-12-10T00:05:29;24.92;;;19.60;;
1831;SDS011;1680;48.106;11.708;2022-12-10T00:08:00;25.52;;;19.33;;
1831;SDS011;1680;48.106;11.708;2022-12-10T00:10:28;22.13;;;18.15;;
1831;SDS011;1680;48.106;11.708;2022-12-10T00:12:55;22.80;;;17.67;;
1831;SDS011;1680;48.106;11.708;2022-12-10T00:15:22;25.05;;;19.80;;
1831;SDS011;1680;48.106;11.708;2022-12-10T00:17:49;26.15;;;19.20;;
1831;SDS011;1680;48.106;11.708;2022-12-10T00:20:16;26.88;;;19.23;;
1831;SDS011;1680;48.106;11.708;2022-12-10T00:22:44;24.27;;;17.73;;
1831;SDS011;1680;48.106;11.708;2022-12-10T00:25:12;26.42;;;18.83;;
1831;SDS011;1680;48.106;11.708;2022-12-10T00:27:39;28.83;;;20.15;;
1831;SDS011;1680;48.106;11.708;2022-12-10T00:30:07;35.40;;;23.60;;
1831;SDS011;1680;48.106;11.708;2022-12-10T00:32:35;35.78;;;24.35;;
1831;SDS011;1680;48.106;11.708;2022-12-10T00:35:02;34.20;;;22.63;;
1831;SDS011;1680;48.106;11.708;2022-12-10T00:37:30;27.38;;;19.65;;
1831;SDS011;1680;48.106;11.708;2022-12-10T00:39:57;29.40;;;21.00;;
1831;SDS011;1680;48.106;11.708;2022-12-10T00:42:26;26.95;;;19.75;;
1831;SDS011;1680;48.106;11.708;2022-12-10T00:44:53;28.38;;;18.80;;
1831;SDS011;1680;48.106;11.708;2022-12-10T00:47:20;24.25;;;18.02;;
1831;SDS011;1680;48.106;11.708;2022-12-10T00:49:47;27.60;;;19.50;;
1831;SDS011;1680;48.106;11.708;2022-12-10T00:52:15;27.58;;;18.35;;
1831;SDS011;1680;48.106;11.708;2022-12-10T00:54:42;29.23;;;19.98;;
1831;SDS011;1680;48.106;11.708;2022-12-10T00:57:09;28.88;;;20.23;;
1831;SDS011;1680;48.106;11.708;2022-12-10T00:59:39;30.65;;;20.02;;
1831;SDS011;1680;48.106;11.708;2022-12-10T01:02:06;28.80;;;19.38;;
1831;SDS011;1680;48.106;11.708;2022-12-10T01:04:33;29.52;;;20.30;;
1831;SDS011;1680;48.106;11.708;2022-12-10T01:07:01;29.42;;;19.77;;
1831;SDS011;1680;48.106;11.708;2022-12-10T01:09:29;24.85;;;17.88;;
1831;SDS011;1680;48.106;11.708;2022-12-10T01:11:59;24.15;;;17.98;;
1831;SDS011;1680;48.106;11.708;2022-12-10T01:14:28;26.50;;;19.30;;
1831;SDS011;1680;48.106;11.708;2022-12-10T01:16:58;25.05;;;18.40;;
1831;SDS011;1680;48.106;11.708;2022-12-10T01:19:28;23.80;;;17.30;;
1831;SDS011;1680;48.106;11.708;2022-12-10T01:22:15;26.40;;;18.67;;
1831;SDS011;1680;48.106;11.708;2022-12-10T01:24:42;24.83;;;19.10;;
1831;SDS011;1680;48.106;11.708;2022-12-10T01:27:09;24.35;;;18.13;;
1831;SDS011;1680;48.106;11.708;2022-12-10T01:29:37;28.93;;;19.37;;
1831;SDS011;1680;48.106;11.708;2022-12-10T01:32:05;25.58;;;18.60;;
1831;SDS011;1680;48.106;11.708;2022-12-10T01:34:32;26.77;;;18.70;;
1831;SDS011;1680;48.106;11.708;2022-12-10T01:36:59;24.45;;;18.40;;
1831;SDS011;1680;48.106;11.708;2022-12-10T01:39:27;28.17;;;19.50;;
1831;SDS011;1680;48.106;11.708;2022-12-10T01:41:55;27.60;;;18.90;;
1831;SDS011;1680;48.106;11.708;2022-12-10T01:47:30;26.27;;;18.73;;
1831;SDS011;1680;48.106;11.708;2022-12-10T01:49:58;27.05;;;20.02;;
1831;SDS011;1680;48.106;11.708;2022-12-10T01:52:26;26.30;;;20.00;;
1831;SDS011;1680;48.106;11.708;2022-12-10T01:54:53;24.98;;;18.88;;
1831;SDS011;1680;48.106;11.708;2022-12-10T01:57:21;27.98;;;20.73;;
1831;SDS011;1680;48.106;11.708;2022-12-10T01:59:51;23.30;;;18.55;;
1831;SDS011;1680;48.106;11.708;2022-12-10T02:02:24;25.48;;;17.73;;
1831;SDS011;1680;48.106;11.708;2022-12-10T02:05:04;26.33;;;18.65;;
1831;SDS011;1680;48.106;11.708;2022-12-10T02:07:45;24.30;;;17.60;;
1831;SDS011;1680;48.106;11.708;2022-12-10T02:10:23;25.05;;;18.25;;
1831;SDS011;1680;48.106;11.708;2022-12-10T02:13:01;26.00;;;18.65;;
1831;SDS011;1680;48.106;11.708;2022-12-10T02:15:34;26.70;;;19.10;;
1831;SDS011;1680;48.106;11.708;2022-12-10T02:18:24;28.20;;;19.25;;
1831;SDS011;1680;48.106;11.708;2022-12-10T02:20:57;26.20;;;19.27;;
1831;SDS011;1680;48.106;11.708;2022-12-10T02:23:28;31.83;;;21.13;;
1831;SDS011;1680;48.106;11.708;2022-12-10T02:25:59;30.75;;;21.00;;
1831;SDS011;1680;48.106;11.708;2022-12-10T02:28:32;28.52;;;20.98;;
1831;SDS011;1680;48.106;11.708;2022-12-10T02:31:07;31.33;;;21.17;;
1831;SDS011;1680;48.106;11.708;2022-12-10T02:33:37;32.17;;;22.65;;
1831;SDS011;1680;48.106;11.708;2022-12-10T02:36:07;30.95;;;22.38;;
1831;SDS011;1680;48.106;11.708;2022-12-10T02:38:36;32.42;;;21.30;;
1831;SDS011;1680;48.106;11.708;2022-12-10T02:41:08;31.48;;;22.35;;
1831;SDS011;1680;48.106;11.708;2022-12-10T02:43:41;34.60;;;21.80;;
1831;SDS011;1680;48.106;11.708;2022-12-10T02:46:11;32.65;;;21.85;;
1831;SDS011;1680;48.106;11.708;2022-12-10T02:48:38;28.80;;;20.02;;
1831;SDS011;1680;48.106;11.708;2022-12-10T02:51:07;31.10;;;20.27;;
1831;SDS011;1680;48.106;11.708;2022-12-10T02:53:40;35.42;;;22.92;;
1831;SDS011;1680;48.106;11.708;2022-12-10T02:56:11;31.15;;;19.95;;
1831;SDS011;1680;48.106;11.708;2022-12-10T02:58:47;35.85;;;21.80;;
1831;SDS011;1680;48.106;11.708;2022-12-10T03:01:23;30.85;;;20.67;;
1831;SDS011;1680;48.106;11.708;2022-12-10T03:03:59;31.13;;;20.63;;
1831;SDS011;1680;48.106;11.708;2022-12-10T03:06:30;30.57;;;20.67;;
1831;SDS011;1680;48.106;11.708;2022-12-10T03:09:04;31.27;;;20.95;;
1831;SDS011;1680;48.106;11.708;2022-12-10T03:11:34;30.80;;;20.77;;
1831;SDS011;1680;48.106;11.708;2022-12-10T03:14:04;29.35;;;20.27;;
1831;SDS011;1680;48.106;11.708;2022-12-10T03:16:54;28.38;;;21.10;;
1831;SDS011;1680;48.106;11.708;2022-12-10T03:19:24;27.55;;;19.75;;
1831;SDS011;1680;48.106;11.708;2022-12-10T03:21:55;29.77;;;19.98;;
1831;SDS011;1680;48.106;11.708;2022-12-10T03:24:23;27.63;;;19.45;;
1831;SDS011;1680;48.106;11.708;2022-12-10T03:27:12;28.52;;;19.95;;
1831;SDS011;1680;48.106;11.708;2022-12-10T03:29:42;27.70;;;20.13;;
1831;SDS011;1680;48.106;11.708;2022-12-10T03:32:14;28.65;;;20.10;;
1831;SDS011;1680;48.106;11.708;2022-12-10T03:34:43;27.67;;;19.48;;
1831;SDS011;1680;48.106;11.708;2022-12-10T03:37:11;29.85;;;18.33;;
1831;SDS011;1680;48.106;11.708;2022-12-10T03:39:39;24.77;;;19.05;;
1831;SDS011;1680;48.106;11.708;2022-12-10T03:42:08;31.45;;;20.13;;
1831;SDS011;1680;48.106;11.708;2022-12-10T03:44:36;24.98;;;18.33;;
1831;SDS011;1680;48.106;11.708;2022-12-10T03:47:06;25.55;;;18.80;;
1831;SDS011;1680;48.106;11.708;2022-12-10T03:49:36;23.95;;;17.73;;
1831;SDS011;1680;48.106;11.708;2022-12-10T03:52:03;26.00;;;17.60;;
1831;SDS011;1680;48.106;11.708;2022-12-10T03:54:30;21.70;;;17.33;;
1831;SDS011;1680;48.106;11.708;2022-12-10T03:56:58;22.88;;;17.10;;
1831;SDS011;1680;48.106;11.708;2022-12-10T03:59:25;25.23;;;18.50;;
1831;SDS011;1680;48.106;11.708;2022-12-10T04:01:52;24.23;;;17.67;;
1831;SDS011;1680;48.106;11.708;2022-12-10T04:04:20;23.00;;;17.48;;
1831;SDS011;1680;48.106;11.708;2022-12-10T04:06:49;21.88;;;17.00;;
1831;SDS011;1680;48.106;11.708;2022-12-10T04:09:16;24.00;;;18.10;;
1831;SDS011;1680;48.106;11.708;2022-12-10T04:11:43;24.05;;;17.80;;
1831;SDS011;1680;48.106;11.708;2022-12-10T04:14:11;22.67;;;18.08;;
1831;SDS011;1680;48.106;11.708;2022-12-10T04:16:57;24.33;;;17.80;;
1831;SDS011;1680;48.106;11.708;2022-12-10T04:19:24;24.70;;;19.02;;
1831;SDS011;1680;48.106;11.708;2022-12-10T04:21:53;23.67;;;17.85;;
1831;SDS011;1680;48.106;11.708;2022-12-10T04:24:38;22.13;;;17.30;;
1831;SDS011;1680;48.106;11.708;2022-12-10T04:27:23;21.85;;;18.45;;
1831;SDS011;1680;48.106;11.708;2022-12-10T04:29:52;22.88;;;17.63;;
1831;SDS011;1680;48.106;11.708;2022-12-10T04:32:21;24.40;;;17.80;;
1831;SDS011;1680;48.106;11.708;2022-12-10T04:34:48;25.08;;;18.27;;
1831;SDS011;1680;48.106;11.708;2022-12-10T04:37:17;22.70;;;17.33;;
1831;SDS011;1680;48.106;11.708;2022-12-10T04:39:46;27.38;;;18.92;;
1831;SDS011;1680;48.106;11.708;2022-12-10T04:42:15;26.45;;;18.77;;
1831;SDS011;1680;48.106;11.708;2022-12-10T04:44:42;25.33;;;18.58;;
1831;SDS011;1680;48.106;11.708;2022-12-10T04:47:10;25.40;;;17.30;;
1831;SDS011;1680;48.106;11.708;2022-12-10T04:49:38;26.05;;;16.98;;
1831;SDS011;1680;48.106;11.708;2022-12-10T04:52:06;23.05;;;17.45;;
1831;SDS011;1680;48.106;11.708;2022-12-10T04:54:36;23.90;;;17.20;;
1831;SDS011;1680;48.106;11.708;2022-12-10T04:57:03;23.88;;;17.70;;
1831;SDS011;1680;48.106;11.708;2022-12-10T04:59:30;27.60;;;19.25;;
1831;SDS011;1680;48.106;11.708;2022-12-10T05:01:57;25.02;;;18.33;;
1831;SDS011;1680;48.106;11.708;2022-12-10T05:04:24;23.83;;;15.80;;
1831;SDS011;1680;48.106;11.708;2022-12-10T05:06:52;24.35;;;17.02;;
1831;SDS011;1680;48.106;11.708;2022-12-10T05:09:19;24.50;;;16.70;;
1831;SDS011;1680;48.106;11.708;2022-12-10T05:11:47;24.60;;;17.05;;
1831;SDS011;1680;48.106;11.708;2022-12-10T05:14:15;27.60;;;18.02;;
1831;SDS011;1680;48.106;11.708;2022-12-10T05:16:42;25.35;;;17.83;;
1831;SDS011;1680;48.106;11.708;2022-12-10T05:19:10;28.77;;;18.17;;
1831;SDS011;1680;48.106;11.708;2022-12-10T05:21:37;26.52;;;17.20;;
1831;SDS011;1680;48.106;11.708;2022-12-10T05:24:22;28.83;;;18.48;;
1831;SDS011;1680;48.106;11.708;2022-12-10T05:26:51;27.48;;;18.48;;
1831;SDS011;1680;48.106;11.708;2022-12-10T05:29:18;28.42;;;19.90;;
1831;SDS011;1680;48.106;11.708;2022-12-10T05:31:46;31.42;;;19.92;;
1831;SDS011;1680;48.106;11.708;2022-12-10T05:34:13;29.35;;;19.40;;
1831;SDS011;1680;48.106;11.708;2022-12-10T05:36:40;26.90;;;19.67;;
1831;SDS011;1680;48.106;11.708;2022-12-10T05:39:07;26.10;;;18.52;;
1831;SDS011;1680;48.106;11.708;2022-12-10T05:41:35;29.20;;;19.30;;
1831;SDS011;1680;48.106;11.708;2022-12-10T05:44:07;29.30;;;19.38;;
1831;SDS011;1680;48.106;11.708;2022-12-10T05:46:36;29.50;;;19.02;;
1831;SDS011;1680;48.106;11.708;2022-12-10T05:49:05;28.55;;;18.58;;
1831;SDS011;1680;48.106;11.708;2022-12-10T05:51:33;29.25;;;18.33;;
1831;SDS011;1680;48.106;11.708;2022-12-10T05:54:02;28.38;;;18.88;;
1831;SDS011;1680;48.106;11.708;2022-12-10T05:56:31;29.45;;;20.52;;
1831;SDS011;1680;48.106;11.708;2022-12-10T05:58:59;30.38;;;20.15;;
1831;SDS011;1680;48.106;11.708;2022-12-10T06:01:30;27.77;;;19.20;;
1831;SDS011;1680;48.106;11.708;2022-12-10T06:03:59;31.35;;;19.92;;
1831;SDS011;1680;48.106;11.708;2022-12-10T06:06:27;33.17;;;20.77;;
1831;SDS011;1680;48.106;11.708;2022-12-10T06:08:56;29.63;;;21.13;;
1831;SDS011;1680;48.106;11.708;2022-12-10T06:11:24;29.80;;;20.67;;
1831;SDS011;1680;48.106;11.708;2022-12-10T06:13:52;29.77;;;20.70;;
1831;SDS011;1680;48.106;11.708;2022-12-10T06:16:20;28.48;;;19.98;;
1831;SDS011;1680;48.106;11.708;2022-12-10T06:18:49;28.95;;;21.20;;
1831;SDS011;1680;48.106;11.708;2022-12-10T06:21:17;27.33;;;18.88;;
1831;SDS011;1680;48.106;11.708;2022-12-10T06:23:45;32.20;;;19.45;;
1831;SDS011;1680;48.106;11.708;2022-12-10T06:26:14;29.88;;;21.58;;
1831;SDS011;1680;48.106;11.708;2022-12-10T06:28:43;27.50;;;20.92;;
1831;SDS011;1680;48.106;11.708;2022-12-10T06:31:12;28.38;;;19.98;;
1831;SDS011;1680;48.106;11.708;2022-12-10T06:33:40;30.23;;;21.20;;
1831;SDS011;1680;48.106;11.708;2022-12-10T06:36:10;29.13;;;20.40;;
1831;SDS011;1680;48.106;11.708;2022-12-10T06:38:39;26.75;;;20.50;;
1831;SDS011;1680;48.106;11.708;2022-12-10T06:41:08;29.80;;;20.83;;
1831;SDS011;1680;48.106;11.708;2022-12-10T06:43:37;26.00;;;19.15;;
1831;SDS011;1680;48.106;11.708;2022-12-10T06:46:04;28.65;;;20.60;;
1831;SDS011;1680;48.106;11.708;2022-12-10T06:48:32;27.17;;;19.23;;
1831;SDS011;1680;48.106;11.708;2022-12-10T06:51:00;28.35;;;20.55;;
1831;SDS011;1680;48.106;11.708;2022-12-10T06:53:28;28.73;;;21.42;;
1831;SDS011;1680;48.106;11.708;2022-12-10T06:55:57;29.83;;;20.45;;
1831;SDS011;1680;48.106;11.708;2022-12-10T06:58:26;28.77;;;19.73;;
1831;SDS011;1680;48.106;11.708;2022-12-10T07:00:54;27.55;;;19.20;;
1831;SDS011;1680;48.106;11.708;2022-12-10T07:03:28;28.50;;;20.25;;
1831;SDS011;1680;48.106;11.708;2022-12-10T07:05:56;28.65;;;19.70;;
1831;SDS011;1680;48.106;11.708;2022-12-10T07:08:23;29.13;;;21.40;;
1831;SDS011;1680;48.106;11.708;2022-12-10T07:10:52;27.52;;;19.38;;
1831;SDS011;1680;48.106;11.708;2022-12-10T07:13:19;27.95;;;19.35;;
1831;SDS011;1680;48.106;11.708;2022-12-10T07:15:46;25.75;;;18.45;;
1831;SDS011;1680;48.106;11.708;2022-12-10T07:18:13;27.73;;;19.85;;
1831;SDS011;1680;48.106;11.708;2022-12-10T07:20:40;27.42;;;19.48;;
1831;SDS011;1680;48.106;11.708;2022-12-10T07:23:08;30.05;;;21.13;;
1831;SDS011;1680;48.106;11.708;2022-12-10T07:25:35;24.30;;;18.55;;
1831;SDS011;1680;48.106;11.708;2022-12-10T07:28:03;26.42;;;19.38;;
1831;SDS011;1680;48.106;11.708;2022-12-10T07:30:31;27.60;;;19.55;;
1831;SDS011;1680;48.106;11.708;2022-12-10T07:32:58;23.60;;;17.65;;
1831;SDS011;1680;48.106;11.708;2022-12-10T07:35:25;24.05;;;18.50;;
1831;SDS011;1680;48.106;11.708;2022-12-10T07:37:53;23.98;;;18.67;;
1831;SDS011;1680;48.106;11.708;2022-12-10T07:40:20;23.55;;;17.48;;
1831;SDS011;1680;48.106;11.708;2022-12-10T07:42:47;30.35;;;19.73;;
1831;SDS011;1680;48.106;11.708;2022-12-10T07:45:16;26.80;;;19.35;;
1831;SDS011;1680;48.106;11.708;2022-12-10T07:47:43;25.80;;;19.35;;
1831;SDS011;1680;48.106;11.708;2022-12-10T07:50:11;25.15;;;18.02;;
1831;SDS011;1680;48.106;11.708;2022-12-10T07:52:38;27.60;;;19.67;;
1831;SDS011;1680;48.106;11.708;2022-12-10T07:55:05;23.85;;;18.20;;
1831;SDS011;1680;48.106;11.708;2022-12-10T07:57:33;23.67;;;18.17;;
1831;SDS011;1680;48.106;11.708;2022-12-10T08:00:00;29.02;;;20.70;;
1831;SDS011;1680;48.106;11.708;2022-12-10T08:02:30;27.02;;;19.50;;
1831;SDS011;1680;48.106;11.708;2022-12-10T08:05:00;25.63;;;19.45;;
1831;SDS011;1680;48.106;11.708;2022-12-10T08:07:27;29.50;;;19.70;;
1831;SDS011;1680;48.106;11.708;2022-12-10T08:09:54;28.50;;;20.90;;
1831;SDS011;1680;48.106;11.708;2022-12-10T08:12:22;26.17;;;18.88;;
1831;SDS011;1680;48.106;11.708;2022-12-10T08:14:50;23.67;;;17.45;;
1831;SDS011;1680;48.106;11.708;2022-12-10T08:17:17;24.60;;;18.27;;
1831;SDS011;1680;48.106;11.708;2022-12-10T08:19:45;25.05;;;18.33;;
1831;SDS011;1680;48.106;11.708;2022-12-10T08:22:12;22.33;;;17.27;;
1831;SDS011;1680;48.106;11.708;2022-12-10T08:24:40;23.75;;;17.30;;
1831;SDS011;1680;48.106;11.708;2022-12-10T08:27:07;24.05;;;18.05;;
1831;SDS011;1680;48.106;11.708;2022-12-10T08:29:34;24.15;;;17.48;;
1831;SDS011;1680;48.106;11.708;2022-12-10T08:32:02;24.17;;;19.00;;
1831;SDS011;1680;48.106;11.708;2022-12-10T08:34:29;22.40;;;16.40;;
1831;SDS011;1680;48.106;11.708;2022-12-10T08:36:58;24.92;;;18.55;;
1831;SDS011;1680;48.106;11.708;2022-12-10T08:39:25;21.42;;;16.30;;
1831;SDS011;1680;48.106;11.708;2022-12-10T08:41:58;24.42;;;18.20;;
1831;SDS011;1680;48.106;11.708;2022-12-10T08:44:25;20.85;;;16.60;;
1831;SDS011;1680;48.106;11.708;2022-12-10T08:46:52;21.52;;;16.35;;
1831;SDS011;1680;48.106;11.708;2022-12-10T08:49:20;24.08;;;18.00;;
1831;SDS011;1680;48.106;11.708;2022-12-10T08:51:47;20.55;;;16.27;;
1831;SDS011;1680;48.106;11.708;2022-12-10T08:54:16;20.77;;;16.83;;
1831;SDS011;1680;48.106;11.708;2022-12-10T08:56:43;21.20;;;15.77;;
1831;SDS011;1680;48.106;11.708;2022-12-10T08:59:10;21.02;;;16.60;;
1831;SDS011;1680;48.106;11.708;2022-12-10T09:01:38;20.10;;;15.57;;
1831;SDS011;1680;48.106;11.708;2022-12-10T09:04:06;19.65;;;15.63;;
1831;SDS011;1680;48.106;11.708;2022-12-10T09:06:33;20.63;;;16.45;;
1831;SDS011;1680;48.106;11.708;2022-12-10T09:09:00;19.83;;;16.10;;
1831;SDS011;1680;48.106;11.708;2022-12-10T09:11:30;21.80;;;16.35;;
1831;SDS011;1680;48.106;11.708;2022-12-10T09:13:58;25.85;;;17.80;;
1831;SDS011;1680;48.106;11.708;2022-12-10T09:16:29;22.80;;;17.33;;
1831;SDS011;1680;48.106;11.708;2022-12-10T09:18:59;22.88;;;16.38;;
1831;SDS011;1680;48.106;11.708;2022-12-10T09:21:27;23.90;;;16.77;;
1831;SDS011;1680;48.106;11.708;2022-12-10T09:23:55;22.40;;;16.88;;
1831;SDS011;1680;48.106;11.708;2022-12-10T09:26:23;24.35;;;19.13;;
1831;SDS011;1680;48.106;11.708;2022-12-10T09:28:52;23.80;;;17.80;;
1831;SDS011;1680;48.106;11.708;2022-12-10T09:31:19;25.25;;;17.20;;
1831;SDS011;1680;48.106;11.708;2022-12-10T09:33:48;23.63;;;18.02;;
1831;SDS011;1680;48.106;11.708;2022-12-10T09:36:18;24.33;;;18.25;;
1831;SDS011;1680;48.106;11.708;2022-12-10T09:38:46;26.52;;;19.70;;
1831;SDS011;1680;48.106;11.708;2022-12-10T09:44:35;28.98;;;18.80;;
1831;SDS011;1680;48.106;11.708;2022-12-10T09:47:09;28.63;;;20.65;;
1831;SDS011;1680;48.106;11.708;2022-12-10T09:49:45;31.70;;;21.90;;
1831;SDS011;1680;48.106;11.708;2022-12-10T09:52:21;31.83;;;21.15;;
1831;SDS011;1680;48.106;11.708;2022-12-10T09:54:52;26.67;;;19.92;;
1831;SDS011;1680;48.106;11.708;2022-12-10T09:57:24;31.67;;;21.42;;
1831;SDS011;1680;48.106;11.708;2022-12-10T09:59:57;34.30;;;22.15;;
1831;SDS011;1680;48.106;11.708;2022-12-10T10:02:29;31.77;;;21.02;;
1831;SDS011;1680;48.106;11.708;2022-12-10T10:04:58;31.63;;;20.80;;
1831;SDS011;1680;48.106;11.708;2022-12-10T10:07:37;27.70;;;20.48;;
1831;SDS011;1680;48.106;11.708;2022-12-10T10:10:07;29.48;;;20.60;;
1831;SDS011;1680;48.106;11.708;2022-12-10T10:12:45;31.98;;;21.65;;
1831;SDS011;1680;48.106;11.708;2022-12-10T10:15:15;30.17;;;20.63;;
1831;SDS011;1680;48.106;11.708;2022-12-10T10:17:46;32.22;;;21.80;;
1831;SDS011;1680;48.106;11.708;2022-12-10T10:20:15;27.92;;;21.25;;
1831;SDS011;1680;48.106;11.708;2022-12-10T10:22:43;29.10;;;19.77;;
1831;SDS011;1680;48.106;11.708;2022-12-10T10:25:12;32.13;;;21.65;;
1831;SDS011;1680;48.106;11.708;2022-12-10T10:27:41;27.05;;;18.83;;
1831;SDS011;1680;48.106;11.708;2022-12-10T10:30:12;28.38;;;20.83;;
1831;SDS011;1680;48.106;11.708;2022-12-10T10:32:44;27.95;;;19.90;;
1831;SDS011;1680;48.106;11.708;2022-12-10T10:35:19;27.48;;;18.52;;
1831;SDS011;1680;48.106;11.708;2022-12-10T10:37:58;26.33;;;19.40;;
1831;SDS011;1680;48.106;11.708;2022-12-10T10:40:28;27.60;;;20.23;;
1831;SDS011;1680;48.106;11.708;2022-12-10T10:42:58;31.55;;;20.48;;
1831;SDS011;1680;48.106;11.708;2022-12-10T10:45:32;26.85;;;18.08;;
1831;SDS011;1680;48.106;11.708;2022-12-10T10:48:06;29.80;;;20.80;;
1831;SDS011;1680;48.106;11.708;2022-12-10T10:50:38;30.50;;;21.13;;
1831;SDS011;1680;48.106;11.708;2022-12-10T10:53:22;31.77;;;20.10;;
1831;SDS011;1680;48.106;11.708;2022-12-10T10:56:04;26.92;;;19.10;;
1831;SDS011;1680;48.106;11.708;2022-12-10T10:58:34;30.83;;;20.70;;
1831;SDS011;1680;48.106;11.708;2022-12-10T11:01:06;28.33;;;19.48;;
1831;SDS011;1680;48.106;11.708;2022-12-10T11:03:35;27.83;;;19.77;;
1831;SDS011;1680;48.106;11.708;2022-12-10T11:06:05;28.55;;;19.40;;
1831;SDS011;1680;48.106;11.708;2022-12-10T11:08:34;31.77;;;20.83;;
1831;SDS011;1680;48.106;11.708;2022-12-10T11:11:06;30.67;;;20.10;;
1831;SDS011;1680;48.106;11.708;2022-12-10T11:13:54;30.50;;;21.02;;
1831;SDS011;1680;48.106;11.708;2022-12-10T11:16:42;28.90;;;20.13;;
1831;SDS011;1680;48.106;11.708;2022-12-10T11:19:16;32.00;;;20.30;;
1831;SDS011;1680;48.106;11.708;2022-12-10T11:21:47;32.83;;;21.15;;
1831;SDS011;1680;48.106;11.708;2022-12-10T11:24:16;34.10;;;22.02;;
1831;SDS011;1680;48.106;11.708;2022-12-10T11:26:48;29.77;;;20.10;;
1831;SDS011;1680;48.106;11.708;2022-12-10T11:29:27;29.35;;;21.42;;
1831;SDS011;1680;48.106;11.708;2022-12-10T11:32:06;31.55;;;20.75;;
1831;SDS011;1680;48.106;11.708;2022-12-10T11:34:47;30.05;;;19.77;;
1831;SDS011;1680;48.106;11.708;2022-12-10T11:37:28;31.65;;;19.98;;
1831;SDS011;1680;48.106;11.708;2022-12-10T11:40:06;31.00;;;20.95;;
1831;SDS011;1680;48.106;11.708;2022-12-10T11:42:50;31.23;;;21.02;;
1831;SDS011;1680;48.106;11.708;2022-12-10T11:45:26;28.55;;;19.67;;
1831;SDS011;1680;48.106;11.708;2022-12-10T11:48:09;27.95;;;19.88;;
1831;SDS011;1680;48.106;11.708;2022-12-10T11:50:43;29.42;;;21.60;;
1831;SDS011;1680;48.106;11.708;2022-12-10T11:56:19;30.30;;;20.75;;
1831;SDS011;1680;48.106;11.708;2022-12-10T11:58:57;33.83;;;20.27;;
1831;SDS011;1680;48.106;11.708;2022-12-10T12:01:46;28.85;;;19.58;;
1831;SDS011;1680;48.106;11.708;2022-12-10T12:04:25;29.67;;;20.52;;
1831;SDS011;1680;48.106;11.708;2022-12-10T12:09:56;26.85;;;19.00;;
1831;SDS011;1680;48.106;11.708;2022-12-10T12:12:35;27.90;;;19.05;;
1831;SDS011;1680;48.106;11.708;2022-12-10T12:15:13;26.70;;;19.15;;
1831;SDS011;1680;48.106;11.708;2022-12-10T12:17:45;29.25;;;20.50;;
1831;SDS011;1680;48.106;11.708;2022-12-10T12:20:28;31.20;;;21.38;;
1831;SDS011;1680;48.106;11.708;2022-12-10T12:23:00;30.13;;;20.42;;
1831;SDS011;1680;48.106;11.708;2022-12-10T12:25:33;31.58;;;20.55;;
1831;SDS011;1680;48.106;11.708;2022-12-10T12:28:06;27.98;;;19.92;;
1831;SDS011;1680;48.106;11.708;2022-12-10T12:30:39;27.35;;;19.60;;
1831;SDS011;1680;48.106;11.708;2022-12-10T12:33:10;32.03;;;19.98;;
1831;SDS011;1680;48.106;11.708;2022-12-10T12:35:46;29.10;;;19.08;;
1831;SDS011;1680;48.106;11.708;2022-12-10T12:38:23;28.88;;;20.15;;
1831;SDS011;1680;48.106;11.708;2022-12-10T12:40:56;26.13;;;18.58;;
1831;SDS011;1680;48.106;11.708;2022-12-10T12:43:31;31.73;;;21.67;;
1831;SDS011;1680;48.106;11.708;2022-12-10T12:46:09;26.70;;;19.80;;
1831;SDS011;1680;48.106;11.708;2022-12-10T12:48:42;31.13;;;21.10;;
1831;SDS011;1680;48.106;11.708;2022-12-10T12:51:21;27.20;;;18.67;;
1831;SDS011;1680;48.106;11.708;2022-12-10T12:53:52;34.78;;;23.90;;
1831;SDS011;1680;48.106;11.708;2022-12-10T12:56:21;35.08;;;24.27;;
1831;SDS011;1680;48.106;11.708;2022-12-10T12:59:01;40.95;;;33.47;;
1831;SDS011;1680;48.106;11.708;2022-12-10T13:01:38;33.58;;;24.58;;
1831;SDS011;1680;48.106;11.708;2022-12-10T13:04:10;36.55;;;23.85;;
1831;SDS011;1680;48.106;11.708;2022-12-10T13:06:41;30.30;;;21.30;;
1831;SDS011;1680;48.106;11.708;2022-12-10T13:09:16;32.45;;;21.10;;
1831;SDS011;1680;48.106;11.708;2022-12-10T13:14:54;31.75;;;21.48;;
1831;SDS011;1680;48.106;11.708;2022-12-10T13:17:28;32.97;;;20.60;;
1831;SDS011;1680;48.106;11.708;2022-12-10T13:22:58;34.15;;;22.00;;
1831;SDS011;1680;48.106;11.708;2022-12-10T13:25:41;32.10;;;21.52;;
1831;SDS011;1680;48.106;11.708;2022-12-10T13:28:26;32.85;;;20.85;;
1831;SDS011;1680;48.106;11.708;2022-12-10T13:33:49;34.53;;;22.58;;
1831;SDS011;1680;48.106;11.708;2022-12-10T13:36:20;28.02;;;20.10;;
1831;SDS011;1680;48.106;11.708;2022-12-10T13:50:50;33.55;;;23.65;;
1831;SDS011;1680;48.106;11.708;2022-12-10T13:53:30;34.28;;;24.10;;
1831;SDS011;1680;48.106;11.708;2022-12-10T13:56:23;35.25;;;23.80;;
1831;SDS011;1680;48.106;11.708;2022-12-10T13:58:57;30.35;;;21.70;;
1831;SDS011;1680;48.106;11.708;2022-12-10T14:01:38;33.33;;;23.23;;
1831;SDS011;1680;48.106;11.708;2022-12-10T14:04:16;34.40;;;22.77;;
1831;SDS011;1680;48.106;11.708;2022-12-10T14:07:02;31.52;;;21.58;;
1831;SDS011;1680;48.106;11.708;2022-12-10T14:09:29;29.50;;;20.35;;
1831;SDS011;1680;48.106;11.708;2022-12-10T14:12:02;31.88;;;21.55;;
1831;SDS011;1680;48.106;11.708;2022-12-10T14:14:33;28.45;;;20.45;;
1831;SDS011;1680;48.106;11.708;2022-12-10T14:17:04;29.45;;;20.55;;
1831;SDS011;1680;48.106;11.708;2022-12-10T14:19:33;30.85;;;20.52;;
1831;SDS011;1680;48.106;11.708;2022-12-10T14:22:03;29.35;;;19.15;;
1831;SDS011;1680;48.106;11.708;2022-12-10T14:24:33;29.10;;;20.90;;
1831;SDS011;1680;48.106;11.708;2022-12-10T14:27:09;28.00;;;19.70;;
1831;SDS011;1680;48.106;11.708;2022-12-10T14:29:43;29.15;;;20.75;;
1831;SDS011;1680;48.106;11.708;2022-12-10T14:32:12;34.10;;;23.00;;
1831;SDS011;1680;48.106;11.708;2022-12-10T14:34:42;31.95;;;20.70;;
1831;SDS011;1680;48.106;11.708;2022-12-10T14:37:13;28.85;;;20.27;;
1831;SDS011;1680;48.106;11.708;2022-12-10T14:39:41;31.02;;;21.90;;
1831;SDS011;1680;48.106;11.708;2022-12-10T14:42:12;30.88;;;21.40;;
1831;SDS011;1680;48.106;11.708;2022-12-10T14:44:42;29.65;;;21.08;;
1831;SDS011;1680;48.106;11.708;2022-12-10T14:47:12;31.27;;;20.50;;
1831;SDS011;1680;48.106;11.708;2022-12-10T14:49:42;28.77;;;20.15;;
1831;SDS011;1680;48.106;11.708;2022-12-10T14:52:12;30.52;;;20.85;;
1831;SDS011;1680;48.106;11.708;2022-12-10T14:54:41;26.00;;;20.02;;
1831;SDS011;1680;48.106;11.708;2022-12-10T14:57:09;23.02;;;17.00;;
1831;SDS011;1680;48.106;11.708;2022-12-10T14:59:45;30.52;;;22.40;;
1831;SDS011;1680;48.106;11.708;2022-12-10T15:02:17;33.75;;;22.10;;
1831;SDS011;1680;48.106;11.708;2022-12-10T15:04:48;32.65;;;22.48;;
1831;SDS011;1680;48.106;11.708;2022-12-10T15:07:17;25.83;;;19.23;;
1831;SDS011;1680;48.106;11.708;2022-12-10T15:09:47;25.77;;;17.90;;
1831;SDS011;1680;48.106;11.708;2022-12-10T15:12:21;23.52;;;16.85;;
1831;SDS011;1680;48.106;11.708;2022-12-10T15:14:59;26.70;;;18.10;;
1831;SDS011;1680;48.106;11.708;2022-12-10T15:17:39;26.42;;;17.60;;
1831;SDS011;1680;48.106;11.708;2022-12-10T15:20:22;23.35;;;17.10;;
1831;SDS011;1680;48.106;11.708;2022-12-10T15:22:51;24.65;;;17.95;;
1831;SDS011;1680;48.106;11.708;2022-12-10T15:25:19;24.23;;;17.13;;
1831;SDS011;1680;48.106;11.708;2022-12-10T15:28:03;24.52;;;17.30;;